createdAt,value
2022-11-09T00:00:20.934Z,14.97
2022-11-09T00:02:47.644Z,14.96
2022-11-09T00:05:14.385Z,14.96
2022-11-09T00:07:41.068Z,14.97
2022-11-09T00:10:09.556Z,14.97
2022-11-09T00:12:36.365Z,14.96
2022-11-09T00:15:03.104Z,14.95
2022-11-09T00:17:29.835Z,14.94
2022-11-09T00:19:56.495Z,14.94
2022-11-09T00:22:23.153Z,14.93
2022-11-09T00:24:49.761Z,14.95
2022-11-09T00:27:18.019Z,14.95
2022-11-09T00:29:44.646Z,14.94
2022-11-09T00:32:11.504Z,14.94
2022-11-09T00:34:38.173Z,14.94
2022-11-09T00:37:05.091Z,14.94
2022-11-09T00:39:31.726Z,14.94
2022-11-09T00:41:58.526Z,14.94
2022-11-09T00:44:26.491Z,14.94
2022-11-09T00:46:53.469Z,14.92
2022-11-09T00:49:20.099Z,14.94
2022-11-09T00:51:46.903Z,14.95
2022-11-09T00:54:13.585Z,14.95
2022-11-09T00:56:40.573Z,14.95
2022-11-09T00:59:09.233Z,14.96
2022-11-09T01:01:37.312Z,14.97
2022-11-09T01:04:03.982Z,14.97
2022-11-09T01:06:33.887Z,14.99
2022-11-09T01:09:00.916Z,14.98
2022-11-09T01:11:27.608Z,14.98
2022-11-09T01:13:55.235Z,14.98
2022-11-09T01:16:24.179Z,14.96
2022-11-09T01:18:54.373Z,14.96
2022-11-09T01:21:21.251Z,14.95
2022-11-09T01:23:47.890Z,14.93
2022-11-09T01:26:16.562Z,14.93
2022-11-09T01:28:43.697Z,14.90
2022-11-09T01:31:13.094Z,14.86
2022-11-09T01:33:40.133Z,14.85
2022-11-09T01:36:10.690Z,14.82
2022-11-09T01:38:38.444Z,14.79
2022-11-09T01:41:06.697Z,14.77
2022-11-09T01:43:34.868Z,14.77
2022-11-09T01:46:05.673Z,14.75
2022-11-09T01:48:37.497Z,14.73
2022-11-09T01:51:10.522Z,14.75
2022-11-09T01:53:42.606Z,14.75
2022-11-09T01:56:13.731Z,14.76
2022-11-09T01:58:45.905Z,14.75
2022-11-09T02:01:14.906Z,14.75
2022-11-09T02:03:46.832Z,14.72
2022-11-09T02:06:16.871Z,14.71
2022-11-09T02:08:46.267Z,14.68
2022-11-09T02:11:16.279Z,14.65
2022-11-09T02:13:45.133Z,14.64
2022-11-09T02:16:14.983Z,14.62
2022-11-09T02:18:48.710Z,14.59
2022-11-09T02:21:17.148Z,14.57
2022-11-09T02:23:44.075Z,14.54
2022-11-09T02:26:17.886Z,14.54
2022-11-09T02:28:44.719Z,14.52
2022-11-09T02:31:15.616Z,14.52
2022-11-09T02:33:54.505Z,14.50
2022-11-09T02:36:23.760Z,14.49
2022-11-09T02:38:51.533Z,14.47
2022-11-09T02:41:19.000Z,14.47
2022-11-09T02:43:45.931Z,14.44
2022-11-09T02:46:12.540Z,14.44
2022-11-09T02:48:39.176Z,14.42
2022-11-09T02:51:05.937Z,14.40
2022-11-09T02:53:33.959Z,14.40
2022-11-09T02:56:00.670Z,14.37
2022-11-09T02:58:27.396Z,14.35
2022-11-09T03:00:54.066Z,14.35
2022-11-09T03:03:20.943Z,14.35
2022-11-09T03:05:48.592Z,14.34
2022-11-09T03:08:15.204Z,14.33
2022-11-09T03:10:43.443Z,14.30
2022-11-09T03:13:10.231Z,14.28
2022-11-09T03:15:38.423Z,14.29
2022-11-09T03:18:05.108Z,14.28
2022-11-09T03:20:31.786Z,14.28
2022-11-09T03:22:59.278Z,14.28
2022-11-09T03:25:26.139Z,14.27
2022-11-09T03:27:58.135Z,14.27
2022-11-09T03:30:24.827Z,14.26
2022-11-09T03:32:51.565Z,14.25
2022-11-09T03:35:18.217Z,14.25
2022-11-09T03:37:44.956Z,14.25
2022-11-09T03:40:13.653Z,14.23
2022-11-09T03:42:44.044Z,14.22
2022-11-09T03:45:12.296Z,14.22
2022-11-09T03:47:40.727Z,14.21
2022-11-09T03:50:08.270Z,14.19
2022-11-09T03:52:35.025Z,14.18
2022-11-09T03:55:02.102Z,14.18
2022-11-09T03:57:28.710Z,14.17
2022-11-09T03:59:55.351Z,14.16
2022-11-09T04:02:23.285Z,14.16
2022-11-09T04:04:50.109Z,14.16
2022-11-09T04:07:16.754Z,14.15
2022-11-09T04:09:43.460Z,14.13
2022-11-09T04:12:10.109Z,14.13
2022-11-09T04:14:36.683Z,14.12
2022-11-09T04:17:03.369Z,14.11
2022-11-09T04:19:31.277Z,14.10
2022-11-09T04:21:57.854Z,14.10
2022-11-09T04:24:24.633Z,14.08
2022-11-09T04:26:51.253Z,14.08
2022-11-09T04:29:17.970Z,14.09
2022-11-09T04:31:44.549Z,14.08
2022-11-09T04:34:11.469Z,14.06
2022-11-09T04:36:39.389Z,14.05
2022-11-09T04:39:06.609Z,14.04
2022-11-09T04:41:33.216Z,14.02
2022-11-09T04:43:59.954Z,14.00
2022-11-09T04:46:27.400Z,13.99
2022-11-09T04:48:54.026Z,13.97
2022-11-09T04:51:20.580Z,13.96
2022-11-09T04:53:48.691Z,13.97
2022-11-09T04:56:15.260Z,13.95
2022-11-09T04:58:41.994Z,13.95
2022-11-09T05:01:11.006Z,13.94
2022-11-09T05:03:37.832Z,13.94
2022-11-09T05:06:23.880Z,13.93
2022-11-09T05:08:52.090Z,13.91
2022-11-09T05:11:18.723Z,13.89
2022-11-09T05:13:48.450Z,13.88
2022-11-09T05:16:17.534Z,13.86
2022-11-09T05:18:44.368Z,13.86
2022-11-09T05:21:12.407Z,13.85
2022-11-09T05:23:57.487Z,13.84
2022-11-09T05:26:26.414Z,13.82
2022-11-09T05:28:53.081Z,13.81
2022-11-09T05:31:19.926Z,13.81
2022-11-09T05:33:49.653Z,13.80
2022-11-09T05:36:16.320Z,13.80
2022-11-09T05:38:43.008Z,13.78
2022-11-09T05:41:09.719Z,13.76
2022-11-09T05:43:38.406Z,13.77
2022-11-09T05:46:06.894Z,13.76
2022-11-09T05:48:33.866Z,13.76
2022-11-09T05:51:04.318Z,13.75
2022-11-09T05:53:31.462Z,13.74
2022-11-09T05:56:02.836Z,13.74
2022-11-09T05:58:30.185Z,13.73
2022-11-09T06:00:59.962Z,13.72
2022-11-09T06:03:26.616Z,13.70
2022-11-09T06:05:53.310Z,13.69
2022-11-09T06:08:19.882Z,13.69
2022-11-09T06:10:46.650Z,13.68
2022-11-09T06:13:13.394Z,13.65
2022-11-09T06:15:40.151Z,13.63
2022-11-09T06:18:08.270Z,13.62
2022-11-09T06:20:37.809Z,13.62
2022-11-09T06:23:05.388Z,13.60
2022-11-09T06:25:32.888Z,13.60
2022-11-09T06:28:00.136Z,13.59
2022-11-09T06:30:27.162Z,13.58
2022-11-09T06:32:58.899Z,13.59
2022-11-09T06:35:26.944Z,13.58
2022-11-09T06:37:56.524Z,13.57
2022-11-09T06:40:23.156Z,13.56
2022-11-09T06:42:49.828Z,13.55
2022-11-09T06:45:17.138Z,13.54
2022-11-09T06:47:43.887Z,13.53
2022-11-09T06:50:11.633Z,13.54
2022-11-09T06:52:39.720Z,13.54
2022-11-09T06:55:08.406Z,13.52
2022-11-09T06:57:35.033Z,13.52
2022-11-09T07:00:02.401Z,13.50
2022-11-09T07:02:28.976Z,13.50
2022-11-09T07:04:55.784Z,13.49
2022-11-09T07:07:27.717Z,13.49
2022-11-09T07:09:57.401Z,13.49
2022-11-09T07:12:24.325Z,13.47
2022-11-09T07:14:50.977Z,13.46
2022-11-09T07:17:17.970Z,13.45
2022-11-09T07:19:45.442Z,13.45
2022-11-09T07:22:12.119Z,13.45
2022-11-09T07:24:38.774Z,13.43
2022-11-09T07:27:06.822Z,13.42
2022-11-09T07:29:33.491Z,13.41
2022-11-09T07:32:00.149Z,13.42
2022-11-09T07:34:26.990Z,13.40
2022-11-09T07:36:54.446Z,13.41
2022-11-09T07:39:21.076Z,13.41
2022-11-09T07:41:48.370Z,13.41
2022-11-09T07:44:18.361Z,13.40
2022-11-09T07:46:46.645Z,13.40
2022-11-09T07:49:14.056Z,13.39
2022-11-09T07:51:41.017Z,13.39
2022-11-09T07:54:07.922Z,13.37
2022-11-09T07:56:34.781Z,13.35
2022-11-09T07:59:01.438Z,13.37
2022-11-09T08:01:29.771Z,13.38
2022-11-09T08:03:56.354Z,13.39
2022-11-09T08:06:28.366Z,13.40
2022-11-09T08:08:55.474Z,13.39
2022-11-09T08:11:23.252Z,13.41
2022-11-09T08:13:50.321Z,13.42
2022-11-09T08:16:17.344Z,13.42
2022-11-09T08:18:45.295Z,13.42
2022-11-09T08:21:12.164Z,13.43
2022-11-09T08:23:38.960Z,13.43
2022-11-09T08:26:06.809Z,13.43
2022-11-09T08:28:34.320Z,13.45
2022-11-09T08:31:03.185Z,13.48
2022-11-09T08:33:33.131Z,13.49
2022-11-09T08:36:01.659Z,13.49
2022-11-09T08:38:28.225Z,13.50
2022-11-09T08:40:58.822Z,13.52
2022-11-09T08:43:26.262Z,13.54
2022-11-09T08:45:52.913Z,13.57
2022-11-09T08:48:20.069Z,13.57
2022-11-09T08:50:53.158Z,13.60
2022-11-09T08:53:21.232Z,13.60
2022-11-09T08:55:49.619Z,13.61
2022-11-09T08:58:17.225Z,13.64
2022-11-09T09:00:44.213Z,13.65
2022-11-09T09:03:10.799Z,13.67
2022-11-09T09:05:37.718Z,13.70
2022-11-09T09:08:06.317Z,13.71
2022-11-09T09:10:37.489Z,13.71
2022-11-09T09:13:04.662Z,13.73
2022-11-09T09:15:32.274Z,13.76
2022-11-09T09:17:59.591Z,13.80
2022-11-09T09:20:26.613Z,13.80
2022-11-09T09:22:53.262Z,13.82
2022-11-09T09:25:20.003Z,13.85
2022-11-09T09:27:48.059Z,13.88
2022-11-09T09:30:14.743Z,13.91
2022-11-09T09:32:41.444Z,13.93
2022-11-09T09:35:08.836Z,13.92
2022-11-09T09:37:35.594Z,13.94
2022-11-09T09:40:02.258Z,13.95
2022-11-09T09:42:32.626Z,13.97
2022-11-09T09:45:04.737Z,13.98
2022-11-09T09:47:46.098Z,13.97
2022-11-09T09:50:15.019Z,13.97
2022-11-09T09:53:04.675Z,13.99
2022-11-09T09:55:38.578Z,14.03
2022-11-09T09:58:11.412Z,14.03
2022-11-09T10:00:41.388Z,14.02
2022-11-09T10:03:15.912Z,14.05
2022-11-09T10:05:50.132Z,14.09
2022-11-09T10:08:25.522Z,14.12
2022-11-09T10:11:02.879Z,14.15
2022-11-09T10:13:51.197Z,14.18
2022-11-09T10:16:26.630Z,14.21
2022-11-09T10:19:19.119Z,14.24
2022-11-09T10:21:53.038Z,14.26
2022-11-09T10:24:31.974Z,14.29
2022-11-09T10:26:59.982Z,14.31
2022-11-09T10:29:29.952Z,14.34
2022-11-09T10:32:09.302Z,14.36
2022-11-09T10:34:40.446Z,14.36
2022-11-09T10:37:15.068Z,14.40
2022-11-09T10:39:52.807Z,14.41
2022-11-09T10:42:19.438Z,14.43
2022-11-09T10:44:46.008Z,14.46
2022-11-09T10:47:16.726Z,14.50
2022-11-09T10:49:44.027Z,14.55
2022-11-09T10:52:46.141Z,14.60
2022-11-09T10:55:23.451Z,14.63
2022-11-09T10:57:53.565Z,14.67
2022-11-09T11:00:21.960Z,14.70
2022-11-09T11:02:51.980Z,14.72
2022-11-09T11:05:32.518Z,14.75
2022-11-09T11:08:19.964Z,14.77
2022-11-09T11:10:46.798Z,14.77
2022-11-09T11:13:24.547Z,14.76
2022-11-09T11:15:52.070Z,14.75
2022-11-09T11:18:23.679Z,14.76
2022-11-09T11:21:06.939Z,14.79
2022-11-09T11:23:37.003Z,14.79
2022-11-09T11:26:17.664Z,14.77
2022-11-09T11:28:48.648Z,14.77
2022-11-09T11:31:17.846Z,14.78
2022-11-09T11:33:46.446Z,14.78
2022-11-09T11:36:23.835Z,14.76
2022-11-09T11:38:57.651Z,14.76
2022-11-09T11:41:47.820Z,14.77
2022-11-09T11:44:25.263Z,14.78
2022-11-09T11:47:01.937Z,14.81
2022-11-09T11:49:55.233Z,14.81
2022-11-09T11:52:32.263Z,14.80
2022-11-09T11:55:15.272Z,14.81
2022-11-09T11:57:52.722Z,14.79
2022-11-09T12:00:21.787Z,14.80
2022-11-09T12:03:18.630Z,14.82
2022-11-09T12:06:02.741Z,14.83
2022-11-09T12:08:38.782Z,14.84
2022-11-09T12:11:19.987Z,14.86
2022-11-09T12:13:58.633Z,14.87
2022-11-09T12:16:29.329Z,14.85
2022-11-09T12:19:14.810Z,14.87
2022-11-09T12:21:52.953Z,14.89
2022-11-09T12:24:28.165Z,14.91
2022-11-09T12:30:02.998Z,14.93
2022-11-09T12:32:37.734Z,14.95
2022-11-09T12:35:18.995Z,14.98
2022-11-09T12:37:52.857Z,15.00
2022-11-09T12:40:24.342Z,15.01
2022-11-09T12:42:57.074Z,15.00
2022-11-09T12:45:28.221Z,15.03
2022-11-09T12:47:57.941Z,15.04
2022-11-09T12:50:26.384Z,15.04
2022-11-09T12:52:55.062Z,15.05
2022-11-09T12:55:34.068Z,15.04
2022-11-09T12:58:03.577Z,15.02
2022-11-09T13:00:56.048Z,15.05
2022-11-09T13:03:28.204Z,15.06
2022-11-09T13:06:12.006Z,15.10
2022-11-09T13:08:41.841Z,15.13
2022-11-09T13:11:20.769Z,15.18
2022-11-09T13:13:47.811Z,15.18
2022-11-09T13:16:35.714Z,15.20
2022-11-09T13:19:02.909Z,15.19
2022-11-09T13:21:47.558Z,15.19
2022-11-09T13:24:53.747Z,15.21
2022-11-09T13:27:40.848Z,15.22
2022-11-09T13:30:46.189Z,15.21
2022-11-09T13:33:19.173Z,15.23
2022-11-09T13:36:16.019Z,15.20
2022-11-09T13:39:08.903Z,15.20
2022-11-09T13:41:43.214Z,15.22
2022-11-09T13:44:21.839Z,15.20
2022-11-09T13:46:50.075Z,15.21
2022-11-09T13:49:46.623Z,15.23
2022-11-09T13:52:45.736Z,15.23
2022-11-09T13:55:37.032Z,15.21
2022-11-09T13:58:12.911Z,15.17
2022-11-09T14:00:45.829Z,15.16
2022-11-09T14:03:21.751Z,15.17
2022-11-09T14:05:51.975Z,15.17
2022-11-09T14:08:23.406Z,15.18
2022-11-09T14:11:12.987Z,15.18
2022-11-09T14:14:03.961Z,15.18
2022-11-09T14:16:41.747Z,15.17
2022-11-09T14:19:20.199Z,15.16
2022-11-09T14:21:48.834Z,15.16
2022-11-09T14:24:20.728Z,15.16
2022-11-09T14:27:21.926Z,15.17
2022-11-09T14:29:52.633Z,15.17
2022-11-09T14:32:26.839Z,15.15
2022-11-09T14:34:53.470Z,15.16
2022-11-09T14:37:22.525Z,15.12
2022-11-09T14:39:53.275Z,15.10
2022-11-09T14:42:23.279Z,15.08
2022-11-09T14:44:50.486Z,15.05
2022-11-09T14:47:21.033Z,15.04
2022-11-09T14:49:50.008Z,15.03
2022-11-09T14:52:27.031Z,15.00
2022-11-09T14:54:54.389Z,14.97
2022-11-09T14:57:24.081Z,14.97
2022-11-09T14:59:51.197Z,14.95
2022-11-09T15:02:19.674Z,14.91
2022-11-09T15:04:57.822Z,14.93
2022-11-09T15:07:27.902Z,14.92
2022-11-09T15:09:57.690Z,14.92
2022-11-09T15:12:25.553Z,14.91
2022-11-09T15:14:54.663Z,14.86
2022-11-09T15:17:25.427Z,14.85
2022-11-09T15:19:55.860Z,14.86
2022-11-09T15:22:46.923Z,14.84
2022-11-09T15:25:23.302Z,14.83
2022-11-09T15:28:04.166Z,14.83
2022-11-09T15:30:34.147Z,14.80
2022-11-09T15:33:01.183Z,14.79
2022-11-09T15:35:29.573Z,14.79
2022-11-09T15:37:56.519Z,14.76
2022-11-09T15:40:24.667Z,14.75
2022-11-09T15:42:51.745Z,14.74
2022-11-09T15:45:20.509Z,14.70
2022-11-09T15:47:52.320Z,14.71
2022-11-09T15:50:21.522Z,14.71
2022-11-09T15:52:49.842Z,14.69
2022-11-09T15:55:19.030Z,14.69
2022-11-09T15:57:45.647Z,14.68
2022-11-09T16:00:19.464Z,14.68
2022-11-09T16:02:47.851Z,14.69
2022-11-09T16:05:15.680Z,14.67
2022-11-09T16:07:50.479Z,14.64
2022-11-09T16:10:20.273Z,14.62
2022-11-09T16:12:47.221Z,14.61
2022-11-09T16:15:14.702Z,14.58
2022-11-09T16:17:41.361Z,14.58
2022-11-09T16:20:08.897Z,14.56
2022-11-09T16:22:35.973Z,14.56
2022-11-09T16:25:04.461Z,14.55
2022-11-09T16:30:19.457Z,14.53
2022-11-09T16:32:46.071Z,14.55
2022-11-09T16:35:26.533Z,14.52
2022-11-09T16:37:55.259Z,14.53
2022-11-09T16:40:23.912Z,14.52
2022-11-09T16:42:51.911Z,14.52
2022-11-09T16:45:19.880Z,14.50
2022-11-09T16:47:49.317Z,14.49
2022-11-09T16:50:16.490Z,14.48
2022-11-09T16:52:43.299Z,14.46
2022-11-09T16:55:10.506Z,14.45
2022-11-09T16:57:38.672Z,14.43
2022-11-09T17:00:06.756Z,14.39
2022-11-09T17:02:33.569Z,14.39
2022-11-09T17:05:00.293Z,14.38
2022-11-09T17:07:27.160Z,14.38
2022-11-09T17:09:53.909Z,14.36
2022-11-09T17:12:20.521Z,14.37
2022-11-09T17:14:50.099Z,14.34
2022-11-09T17:17:22.231Z,14.34
2022-11-09T17:19:49.473Z,14.32
2022-11-09T17:22:17.288Z,14.30
2022-11-09T17:24:44.078Z,14.29
2022-11-09T17:27:11.795Z,14.30
2022-11-09T17:29:39.588Z,14.29
2022-11-09T17:32:09.218Z,14.26
2022-11-09T17:34:36.607Z,14.25
2022-11-09T17:37:05.384Z,14.24
2022-11-09T17:39:32.687Z,14.24
2022-11-09T17:41:59.805Z,14.23
2022-11-09T17:44:26.421Z,14.22
2022-11-09T17:46:53.186Z,14.21
2022-11-09T17:49:21.080Z,14.21
2022-11-09T17:51:47.904Z,14.19
2022-11-09T17:54:15.049Z,14.17
2022-11-09T17:56:42.454Z,14.15
2022-11-09T17:59:09.326Z,14.15
2022-11-09T18:01:41.529Z,14.13
2022-11-09T18:04:09.922Z,14.13
2022-11-09T18:06:38.509Z,14.13
2022-11-09T18:11:55.436Z,14.13
2022-11-09T18:14:22.015Z,14.11
2022-11-09T18:16:48.675Z,14.09
2022-11-09T18:19:15.512Z,14.06
2022-11-09T18:21:44.518Z,14.06
2022-11-09T18:24:11.524Z,14.02
2022-11-09T18:26:38.732Z,14.00
2022-11-09T18:29:05.326Z,13.97
2022-11-09T18:31:32.195Z,13.96
2022-11-09T18:33:58.987Z,13.95
2022-11-09T18:36:26.215Z,13.94
2022-11-09T18:38:56.140Z,13.93
2022-11-09T18:41:24.516Z,13.90
2022-11-09T18:43:53.861Z,13.89
2022-11-09T18:46:21.993Z,13.87
2022-11-09T18:48:50.889Z,13.84
2022-11-09T18:51:17.566Z,13.83
2022-11-09T18:53:46.153Z,13.82
2022-11-09T18:56:18.912Z,13.81
2022-11-09T18:58:46.515Z,13.78
2022-11-09T19:01:14.279Z,13.76
2022-11-09T19:03:40.927Z,13.74
2022-11-09T19:06:09.183Z,13.69
2022-11-09T19:08:54.398Z,13.68
2022-11-09T19:11:22.659Z,13.64
2022-11-09T19:13:49.456Z,13.61
2022-11-09T19:16:16.861Z,13.61
2022-11-09T19:18:43.610Z,13.61
2022-11-09T19:21:29.847Z,13.60
2022-11-09T19:23:56.877Z,13.59
2022-11-09T19:26:24.926Z,13.58
2022-11-09T19:28:52.107Z,13.57
2022-11-09T19:31:22.052Z,13.56
2022-11-09T19:33:49.039Z,13.55
2022-11-09T19:36:29.687Z,13.53
2022-11-09T19:38:57.795Z,13.51
2022-11-09T19:41:26.463Z,13.49
2022-11-09T19:43:58.432Z,13.48
2022-11-09T19:46:26.273Z,13.44
2022-11-09T19:48:53.653Z,13.41
2022-11-09T19:51:20.532Z,13.38
2022-11-09T19:53:51.419Z,13.38
2022-11-09T19:56:20.682Z,13.35
2022-11-09T19:58:50.656Z,13.33
2022-11-09T20:01:18.555Z,13.32
2022-11-09T20:03:49.479Z,13.29
2022-11-09T20:06:16.936Z,13.26
2022-11-09T20:08:43.789Z,13.26
2022-11-09T20:11:33.534Z,13.28
2022-11-09T20:14:01.727Z,13.24
2022-11-09T20:16:29.637Z,13.25
2022-11-09T20:18:57.055Z,13.24
2022-11-09T20:21:24.059Z,13.23
2022-11-09T20:23:50.673Z,13.20
2022-11-09T20:26:17.550Z,13.19
2022-11-09T20:28:47.232Z,13.18
2022-11-09T20:31:19.378Z,13.16
2022-11-09T20:33:46.741Z,13.13
2022-11-09T20:36:13.937Z,13.12
2022-11-09T20:38:41.649Z,13.11
2022-11-09T20:41:11.566Z,13.11
2022-11-09T20:43:38.942Z,13.10
2022-11-09T20:46:08.180Z,13.09
2022-11-09T20:48:53.438Z,13.06
2022-11-09T20:51:22.681Z,13.03
2022-11-09T20:53:50.256Z,13.00
2022-11-09T20:56:20.171Z,12.97
2022-11-09T20:58:47.239Z,12.95
2022-11-09T21:01:16.418Z,12.93
2022-11-09T21:03:45.333Z,12.91
2022-11-09T21:06:14.701Z,12.88
2022-11-09T21:08:44.329Z,12.88
2022-11-09T21:11:14.709Z,12.85
2022-11-09T21:13:42.882Z,12.83
2022-11-09T21:16:11.626Z,12.82
2022-11-09T21:18:38.613Z,12.79
2022-11-09T21:21:12.102Z,12.75
2022-11-09T21:23:59.074Z,12.74
2022-11-09T21:26:44.740Z,12.69
2022-11-09T21:29:32.911Z,12.64
2022-11-09T21:31:59.997Z,12.62
2022-11-09T21:34:31.436Z,12.60
2022-11-09T21:37:04.383Z,12.60
2022-11-09T21:39:31.511Z,12.57
2022-11-09T21:41:58.802Z,12.59
2022-11-09T21:44:27.698Z,12.56
2022-11-09T21:46:55.297Z,12.58
2022-11-09T21:49:22.065Z,12.57
2022-11-09T21:51:49.366Z,12.55
2022-11-09T21:54:18.001Z,12.53
2022-11-09T21:56:44.765Z,12.52
2022-11-09T21:59:11.571Z,12.51
2022-11-09T22:01:38.366Z,12.46
2022-11-09T22:04:05.359Z,12.46
2022-11-09T22:06:32.393Z,12.43
2022-11-09T22:08:59.295Z,12.42
2022-11-09T22:11:46.037Z,12.41
2022-11-09T22:14:31.467Z,12.39
2022-11-09T22:16:58.720Z,12.38
2022-11-09T22:19:45.437Z,12.38
2022-11-09T22:22:12.607Z,12.37
2022-11-09T22:24:39.274Z,12.36
2022-11-09T22:27:07.535Z,12.35
2022-11-09T22:29:34.471Z,12.33
2022-11-09T22:32:01.105Z,12.32
2022-11-09T22:34:27.941Z,12.31
2022-11-09T22:36:54.757Z,12.31
2022-11-09T22:39:21.598Z,12.30
2022-11-09T22:41:48.511Z,12.28
2022-11-09T22:44:16.640Z,12.27
2022-11-09T22:46:43.421Z,12.26
2022-11-09T22:49:10.438Z,12.25
2022-11-09T22:51:37.133Z,12.25
2022-11-09T22:54:04.207Z,12.23
2022-11-09T22:56:30.765Z,12.25
2022-11-09T22:58:57.364Z,12.23
2022-11-09T23:01:25.463Z,12.23
2022-11-09T23:03:52.315Z,12.23
2022-11-09T23:06:20.432Z,12.23
2022-11-09T23:08:47.365Z,12.22
2022-11-09T23:11:19.391Z,12.22
2022-11-09T23:13:49.186Z,12.21
2022-11-09T23:16:16.314Z,12.22
2022-11-09T23:18:56.222Z,12.21
2022-11-09T23:21:25.437Z,12.18
2022-11-09T23:23:53.442Z,12.16
2022-11-09T23:26:21.373Z,12.15
2022-11-09T23:28:48.715Z,12.13
2022-11-09T23:31:19.466Z,12.11
2022-11-09T23:33:49.544Z,12.08
2022-11-09T23:36:16.435Z,12.09
2022-11-09T23:38:43.140Z,12.08
2022-11-09T23:41:12.435Z,12.08
2022-11-09T23:43:39.310Z,12.07
2022-11-09T23:46:08.455Z,12.07
2022-11-09T23:48:35.757Z,12.05
2022-11-09T23:51:05.085Z,12.07
2022-11-09T23:53:32.314Z,12.03
2022-11-09T23:56:03.823Z,12.04
2022-11-09T23:58:30.736Z,12.04
